sensor_id;sensor_type;location;lat;lon;timestamp;P1;durP1;ratioP1;P2;durP2;ratioP2
12474;SDS011;6302;42.624;23.334;2022-09-24T00:01:47;3.57;;;2.30;;
12474;SDS011;6302;42.624;23.334;2022-09-24T00:04:15;2.37;;;2.20;;
12474;SDS011;6302;42.624;23.334;2022-09-24T00:06:43;2.47;;;2.37;;
12474;SDS011;6302;42.624;23.334;2022-09-24T00:09:12;2.77;;;2.57;;
12474;SDS011;6302;42.624;23.334;2022-09-24T00:11:41;2.57;;;2.30;;
12474;SDS011;6302;42.624;23.334;2022-09-24T00:14:09;2.50;;;2.30;;
12474;SDS011;6302;42.624;23.334;2022-09-24T00:16:39;2.77;;;2.47;;
12474;SDS011;6302;42.624;23.334;2022-09-24T00:19:08;2.60;;;2.40;;
12474;SDS011;6302;42.624;23.334;2022-09-24T00:21:35;2.67;;;2.47;;
12474;SDS011;6302;42.624;23.334;2022-09-24T00:24:04;2.90;;;2.70;;
12474;SDS011;6302;42.624;23.334;2022-09-24T00:26:32;3.40;;;3.10;;
12474;SDS011;6302;42.624;23.334;2022-09-24T00:29:15;4.97;;;4.47;;
12474;SDS011;6302;42.624;23.334;2022-09-24T00:31:45;6.17;;;5.50;;
12474;SDS011;6302;42.624;23.334;2022-09-24T00:34:12;4.30;;;3.90;;
12474;SDS011;6302;42.624;23.334;2022-09-24T00:36:39;4.20;;;3.83;;
12474;SDS011;6302;42.624;23.334;2022-09-24T00:39:06;4.50;;;4.10;;
12474;SDS011;6302;42.624;23.334;2022-09-24T00:41:34;4.07;;;3.77;;
12474;SDS011;6302;42.624;23.334;2022-09-24T00:47:12;4.53;;;3.70;;
12474;SDS011;6302;42.624;23.334;2022-09-24T00:49:39;3.83;;;3.47;;
12474;SDS011;6302;42.624;23.334;2022-09-24T00:52:07;4.37;;;3.97;;
12474;SDS011;6302;42.624;23.334;2022-09-24T00:54:34;4.23;;;3.80;;
12474;SDS011;6302;42.624;23.334;2022-09-24T00:57:01;3.90;;;3.50;;
12474;SDS011;6302;42.624;23.334;2022-09-24T00:59:28;4.47;;;4.07;;
12474;SDS011;6302;42.624;23.334;2022-09-24T01:01:56;3.90;;;3.50;;
12474;SDS011;6302;42.624;23.334;2022-09-24T01:04:25;5.07;;;4.50;;
12474;SDS011;6302;42.624;23.334;2022-09-24T01:06:53;5.20;;;4.67;;
12474;SDS011;6302;42.624;23.334;2022-09-24T01:09:21;4.97;;;4.53;;
12474;SDS011;6302;42.624;23.334;2022-09-24T01:11:53;4.70;;;4.30;;
12474;SDS011;6302;42.624;23.334;2022-09-24T01:14:43;5.90;;;4.70;;
12474;SDS011;6302;42.624;23.334;2022-09-24T01:17:24;5.33;;;4.57;;
12474;SDS011;6302;42.624;23.334;2022-09-24T01:20:07;7.03;;;5.13;;
12474;SDS011;6302;42.624;23.334;2022-09-24T01:23:11;8.90;;;6.77;;
12474;SDS011;6302;42.624;23.334;2022-09-24T01:25:52;7.17;;;6.00;;
12474;SDS011;6302;42.624;23.334;2022-09-24T01:28:33;6.07;;;5.43;;
12474;SDS011;6302;42.624;23.334;2022-09-24T01:31:09;5.33;;;4.40;;
12474;SDS011;6302;42.624;23.334;2022-09-24T01:33:42;4.83;;;4.43;;
12474;SDS011;6302;42.624;23.334;2022-09-24T01:36:11;6.60;;;4.57;;
12474;SDS011;6302;42.624;23.334;2022-09-24T01:38:41;5.07;;;4.60;;
12474;SDS011;6302;42.624;23.334;2022-09-24T01:41:09;4.70;;;4.20;;
12474;SDS011;6302;42.624;23.334;2022-09-24T01:43:40;4.53;;;4.13;;
12474;SDS011;6302;42.624;23.334;2022-09-24T01:46:09;5.13;;;4.50;;
12474;SDS011;6302;42.624;23.334;2022-09-24T01:48:38;4.60;;;4.17;;
12474;SDS011;6302;42.624;23.334;2022-09-24T01:51:07;5.50;;;4.87;;
12474;SDS011;6302;42.624;23.334;2022-09-24T01:53:39;8.33;;;4.80;;
12474;SDS011;6302;42.624;23.334;2022-09-24T01:56:09;5.30;;;4.80;;
12474;SDS011;6302;42.624;23.334;2022-09-24T01:58:42;5.07;;;4.57;;
12474;SDS011;6302;42.624;23.334;2022-09-24T02:01:17;4.53;;;4.13;;
12474;SDS011;6302;42.624;23.334;2022-09-24T02:03:50;5.70;;;4.80;;
12474;SDS011;6302;42.624;23.334;2022-09-24T02:06:22;5.27;;;4.57;;
12474;SDS011;6302;42.624;23.334;2022-09-24T02:08:55;4.83;;;4.43;;
12474;SDS011;6302;42.624;23.334;2022-09-24T02:11:23;6.67;;;6.07;;
12474;SDS011;6302;42.624;23.334;2022-09-24T02:13:53;5.93;;;5.33;;
12474;SDS011;6302;42.624;23.334;2022-09-24T02:16:27;6.80;;;5.80;;
12474;SDS011;6302;42.624;23.334;2022-09-24T02:18:57;7.53;;;6.00;;
12474;SDS011;6302;42.624;23.334;2022-09-24T02:21:27;8.17;;;5.97;;
12474;SDS011;6302;42.624;23.334;2022-09-24T02:23:58;7.87;;;5.90;;
12474;SDS011;6302;42.624;23.334;2022-09-24T02:26:30;6.97;;;5.47;;
12474;SDS011;6302;42.624;23.334;2022-09-24T02:28:57;6.33;;;5.73;;
12474;SDS011;6302;42.624;23.334;2022-09-24T02:31:26;6.83;;;5.50;;
12474;SDS011;6302;42.624;23.334;2022-09-24T02:33:56;6.17;;;5.57;;
12474;SDS011;6302;42.624;23.334;2022-09-24T02:36:44;7.30;;;6.17;;
12474;SDS011;6302;42.624;23.334;2022-09-24T02:39:11;6.53;;;5.40;;
12474;SDS011;6302;42.624;23.334;2022-09-24T02:41:38;6.23;;;5.63;;
12474;SDS011;6302;42.624;23.334;2022-09-24T02:44:06;6.57;;;5.77;;
12474;SDS011;6302;42.624;23.334;2022-09-24T02:46:34;8.73;;;5.80;;
12474;SDS011;6302;42.624;23.334;2022-09-24T02:49:03;6.30;;;5.70;;
12474;SDS011;6302;42.624;23.334;2022-09-24T02:51:30;5.73;;;5.23;;
12474;SDS011;6302;42.624;23.334;2022-09-24T02:53:57;5.53;;;5.03;;
12474;SDS011;6302;42.624;23.334;2022-09-24T02:56:25;5.33;;;4.83;;
12474;SDS011;6302;42.624;23.334;2022-09-24T02:58:52;5.90;;;4.70;;
12474;SDS011;6302;42.624;23.334;2022-09-24T03:01:19;5.90;;;5.30;;
12474;SDS011;6302;42.624;23.334;2022-09-24T03:03:47;5.97;;;5.23;;
12474;SDS011;6302;42.624;23.334;2022-09-24T03:06:14;6.20;;;5.63;;
12474;SDS011;6302;42.624;23.334;2022-09-24T03:08:41;6.77;;;6.00;;
12474;SDS011;6302;42.624;23.334;2022-09-24T03:11:09;6.00;;;5.50;;
12474;SDS011;6302;42.624;23.334;2022-09-24T03:13:36;5.70;;;5.20;;
12474;SDS011;6302;42.624;23.334;2022-09-24T03:16:04;5.63;;;4.57;;
12474;SDS011;6302;42.624;23.334;2022-09-24T03:18:32;5.30;;;4.90;;
12474;SDS011;6302;42.624;23.334;2022-09-24T03:21:01;5.83;;;5.33;;
12474;SDS011;6302;42.624;23.334;2022-09-24T03:23:29;5.10;;;4.60;;
12474;SDS011;6302;42.624;23.334;2022-09-24T03:25:57;5.73;;;5.23;;
12474;SDS011;6302;42.624;23.334;2022-09-24T03:28:24;5.83;;;5.23;;
12474;SDS011;6302;42.624;23.334;2022-09-24T03:30:51;6.40;;;5.57;;
12474;SDS011;6302;42.624;23.334;2022-09-24T03:33:26;6.10;;;5.40;;
12474;SDS011;6302;42.624;23.334;2022-09-24T03:35:55;5.90;;;5.30;;
12474;SDS011;6302;42.624;23.334;2022-09-24T03:38:24;6.80;;;5.23;;
12474;SDS011;6302;42.624;23.334;2022-09-24T03:40:52;6.30;;;5.70;;
12474;SDS011;6302;42.624;23.334;2022-09-24T03:43:18;6.10;;;5.50;;
12474;SDS011;6302;42.624;23.334;2022-09-24T03:45:45;6.37;;;5.37;;
12474;SDS011;6302;42.624;23.334;2022-09-24T03:48:13;5.53;;;5.03;;
12474;SDS011;6302;42.624;23.334;2022-09-24T03:50:40;5.87;;;5.07;;
12474;SDS011;6302;42.624;23.334;2022-09-24T03:53:07;6.30;;;4.87;;
12474;SDS011;6302;42.624;23.334;2022-09-24T03:55:40;5.63;;;5.00;;
12474;SDS011;6302;42.624;23.334;2022-09-24T03:58:08;5.97;;;5.20;;
12474;SDS011;6302;42.624;23.334;2022-09-24T04:00:35;5.83;;;5.33;;
12474;SDS011;6302;42.624;23.334;2022-09-24T04:03:02;5.30;;;4.80;;
12474;SDS011;6302;42.624;23.334;2022-09-24T04:05:29;5.93;;;4.77;;
12474;SDS011;6302;42.624;23.334;2022-09-24T04:07:56;5.00;;;4.50;;
12474;SDS011;6302;42.624;23.334;2022-09-24T04:10:23;5.37;;;4.70;;
12474;SDS011;6302;42.624;23.334;2022-09-24T04:12:51;5.10;;;4.60;;
12474;SDS011;6302;42.624;23.334;2022-09-24T04:15:18;5.20;;;4.70;;
12474;SDS011;6302;42.624;23.334;2022-09-24T04:17:48;5.97;;;5.17;;
12474;SDS011;6302;42.624;23.334;2022-09-24T04:20:15;5.60;;;5.03;;
12474;SDS011;6302;42.624;23.334;2022-09-24T04:22:46;5.40;;;4.90;;
12474;SDS011;6302;42.624;23.334;2022-09-24T04:25:14;6.53;;;5.00;;
12474;SDS011;6302;42.624;23.334;2022-09-24T04:27:42;5.10;;;4.60;;
12474;SDS011;6302;42.624;23.334;2022-09-24T04:30:11;5.77;;;5.30;;
12474;SDS011;6302;42.624;23.334;2022-09-24T04:32:39;6.23;;;5.30;;
12474;SDS011;6302;42.624;23.334;2022-09-24T04:35:07;6.07;;;5.57;;
12474;SDS011;6302;42.624;23.334;2022-09-24T04:37:34;5.33;;;4.83;;
12474;SDS011;6302;42.624;23.334;2022-09-24T04:40:01;5.70;;;5.10;;
12474;SDS011;6302;42.624;23.334;2022-09-24T04:42:28;7.27;;;5.13;;
12474;SDS011;6302;42.624;23.334;2022-09-24T04:44:55;4.90;;;4.53;;
12474;SDS011;6302;42.624;23.334;2022-09-24T04:47:24;5.43;;;4.93;;
12474;SDS011;6302;42.624;23.334;2022-09-24T04:49:51;5.67;;;4.97;;
12474;SDS011;6302;42.624;23.334;2022-09-24T04:52:17;6.37;;;4.60;;
12474;SDS011;6302;42.624;23.334;2022-09-24T04:54:44;5.13;;;4.67;;
12474;SDS011;6302;42.624;23.334;2022-09-24T04:57:12;5.87;;;5.20;;
12474;SDS011;6302;42.624;23.334;2022-09-24T04:59:38;5.43;;;4.93;;
12474;SDS011;6302;42.624;23.334;2022-09-24T05:02:06;5.47;;;4.60;;
12474;SDS011;6302;42.624;23.334;2022-09-24T05:04:34;6.70;;;4.90;;
12474;SDS011;6302;42.624;23.334;2022-09-24T05:07:01;7.27;;;6.57;;
12474;SDS011;6302;42.624;23.334;2022-09-24T05:09:28;7.50;;;6.80;;
12474;SDS011;6302;42.624;23.334;2022-09-24T05:11:56;7.40;;;6.70;;
12474;SDS011;6302;42.624;23.334;2022-09-24T05:14:23;8.00;;;7.27;;
12474;SDS011;6302;42.624;23.334;2022-09-24T05:16:50;8.50;;;7.23;;
12474;SDS011;6302;42.624;23.334;2022-09-24T05:19:17;9.00;;;8.10;;
12474;SDS011;6302;42.624;23.334;2022-09-24T05:21:45;8.20;;;7.00;;
12474;SDS011;6302;42.624;23.334;2022-09-24T05:24:12;8.43;;;7.60;;
12474;SDS011;6302;42.624;23.334;2022-09-24T05:26:39;8.40;;;7.13;;
12474;SDS011;6302;42.624;23.334;2022-09-24T05:29:23;7.93;;;7.07;;
12474;SDS011;6302;42.624;23.334;2022-09-24T05:31:50;7.87;;;7.03;;
12474;SDS011;6302;42.624;23.334;2022-09-24T05:34:17;8.93;;;8.03;;
12474;SDS011;6302;42.624;23.334;2022-09-24T05:36:45;9.87;;;8.00;;
12474;SDS011;6302;42.624;23.334;2022-09-24T05:39:12;7.57;;;6.87;;
12474;SDS011;6302;42.624;23.334;2022-09-24T05:41:39;8.30;;;7.47;;
12474;SDS011;6302;42.624;23.334;2022-09-24T05:44:07;8.53;;;7.37;;
12474;SDS011;6302;42.624;23.334;2022-09-24T05:46:35;7.60;;;6.90;;
12474;SDS011;6302;42.624;23.334;2022-09-24T05:49:02;7.10;;;6.50;;
12474;SDS011;6302;42.624;23.334;2022-09-24T05:51:29;8.07;;;7.00;;
12474;SDS011;6302;42.624;23.334;2022-09-24T05:53:57;8.50;;;7.20;;
12474;SDS011;6302;42.624;23.334;2022-09-24T05:56:24;8.17;;;6.60;;
12474;SDS011;6302;42.624;23.334;2022-09-24T05:58:50;10.20;;;7.87;;
12474;SDS011;6302;42.624;23.334;2022-09-24T06:01:17;7.57;;;6.73;;
12474;SDS011;6302;42.624;23.334;2022-09-24T06:03:44;8.37;;;7.47;;
12474;SDS011;6302;42.624;23.334;2022-09-24T06:06:11;8.23;;;6.97;;
12474;SDS011;6302;42.624;23.334;2022-09-24T06:08:37;9.63;;;7.37;;
12474;SDS011;6302;42.624;23.334;2022-09-24T06:11:06;11.27;;;7.37;;
12474;SDS011;6302;42.624;23.334;2022-09-24T06:13:33;8.87;;;8.03;;
12474;SDS011;6302;42.624;23.334;2022-09-24T06:16:00;7.53;;;6.73;;
12474;SDS011;6302;42.624;23.334;2022-09-24T06:18:28;7.80;;;6.20;;
12474;SDS011;6302;42.624;23.334;2022-09-24T06:20:59;7.80;;;7.10;;
12474;SDS011;6302;42.624;23.334;2022-09-24T06:23:26;9.73;;;7.20;;
12474;SDS011;6302;42.624;23.334;2022-09-24T06:25:53;8.50;;;6.83;;
12474;SDS011;6302;42.624;23.334;2022-09-24T06:28:21;8.13;;;7.10;;
12474;SDS011;6302;42.624;23.334;2022-09-24T06:30:49;7.90;;;7.10;;
12474;SDS011;6302;42.624;23.334;2022-09-24T06:33:16;8.47;;;7.57;;
12474;SDS011;6302;42.624;23.334;2022-09-24T06:35:44;7.50;;;6.73;;
12474;SDS011;6302;42.624;23.334;2022-09-24T06:38:13;7.70;;;6.90;;
12474;SDS011;6302;42.624;23.334;2022-09-24T06:40:42;7.60;;;6.47;;
12474;SDS011;6302;42.624;23.334;2022-09-24T06:43:11;6.70;;;6.10;;
12474;SDS011;6302;42.624;23.334;2022-09-24T06:45:40;9.07;;;6.77;;
12474;SDS011;6302;42.624;23.334;2022-09-24T06:48:08;7.27;;;6.47;;
12474;SDS011;6302;42.624;23.334;2022-09-24T06:50:38;7.63;;;5.83;;
12474;SDS011;6302;42.624;23.334;2022-09-24T06:53:07;6.97;;;5.83;;
12474;SDS011;6302;42.624;23.334;2022-09-24T06:55:36;6.30;;;5.70;;
12474;SDS011;6302;42.624;23.334;2022-09-24T06:58:03;6.60;;;5.87;;
12474;SDS011;6302;42.624;23.334;2022-09-24T07:00:32;8.20;;;6.40;;
12474;SDS011;6302;42.624;23.334;2022-09-24T07:03:00;6.20;;;5.60;;
12474;SDS011;6302;42.624;23.334;2022-09-24T07:05:27;6.30;;;5.10;;
12474;SDS011;6302;42.624;23.334;2022-09-24T07:07:54;5.80;;;5.20;;
12474;SDS011;6302;42.624;23.334;2022-09-24T07:10:21;6.00;;;5.40;;
12474;SDS011;6302;42.624;23.334;2022-09-24T07:12:49;7.53;;;5.70;;
12474;SDS011;6302;42.624;23.334;2022-09-24T07:15:16;5.47;;;4.90;;
12474;SDS011;6302;42.624;23.334;2022-09-24T07:17:43;13.87;;;7.27;;
12474;SDS011;6302;42.624;23.334;2022-09-24T07:20:11;8.03;;;6.47;;
12474;SDS011;6302;42.624;23.334;2022-09-24T07:22:38;7.07;;;6.33;;
12474;SDS011;6302;42.624;23.334;2022-09-24T07:25:06;10.30;;;5.87;;
12474;SDS011;6302;42.624;23.334;2022-09-24T07:27:34;5.47;;;4.67;;
12474;SDS011;6302;42.624;23.334;2022-09-24T07:30:01;7.73;;;4.87;;
12474;SDS011;6302;42.624;23.334;2022-09-24T07:32:30;6.60;;;5.47;;
12474;SDS011;6302;42.624;23.334;2022-09-24T07:34:56;5.33;;;4.90;;
12474;SDS011;6302;42.624;23.334;2022-09-24T07:37:25;4.77;;;4.37;;
12474;SDS011;6302;42.624;23.334;2022-09-24T07:39:51;9.47;;;5.33;;
12474;SDS011;6302;42.624;23.334;2022-09-24T07:42:18;6.63;;;5.27;;
12474;SDS011;6302;42.624;23.334;2022-09-24T07:44:45;7.07;;;5.13;;
12474;SDS011;6302;42.624;23.334;2022-09-24T07:47:13;6.30;;;5.70;;
12474;SDS011;6302;42.624;23.334;2022-09-24T07:49:40;7.20;;;6.00;;
12474;SDS011;6302;42.624;23.334;2022-09-24T07:52:08;8.13;;;6.20;;
12474;SDS011;6302;42.624;23.334;2022-09-24T07:54:37;7.07;;;6.00;;
12474;SDS011;6302;42.624;23.334;2022-09-24T07:57:08;6.43;;;5.83;;
12474;SDS011;6302;42.624;23.334;2022-09-24T07:59:37;6.27;;;5.67;;
12474;SDS011;6302;42.624;23.334;2022-09-24T08:02:07;7.73;;;5.93;;
12474;SDS011;6302;42.624;23.334;2022-09-24T08:04:40;6.60;;;5.60;;
12474;SDS011;6302;42.624;23.334;2022-09-24T08:07:07;7.20;;;5.40;;
12474;SDS011;6302;42.624;23.334;2022-09-24T08:09:33;6.67;;;5.97;;
12474;SDS011;6302;42.624;23.334;2022-09-24T08:12:02;5.70;;;5.10;;
12474;SDS011;6302;42.624;23.334;2022-09-24T08:14:29;9.87;;;5.43;;
12474;SDS011;6302;42.624;23.334;2022-09-24T08:16:56;12.60;;;6.13;;
12474;SDS011;6302;42.624;23.334;2022-09-24T08:19:22;9.83;;;4.77;;
12474;SDS011;6302;42.624;23.334;2022-09-24T08:21:49;6.43;;;4.80;;
12474;SDS011;6302;42.624;23.334;2022-09-24T08:24:16;4.97;;;4.50;;
12474;SDS011;6302;42.624;23.334;2022-09-24T08:26:43;6.97;;;5.03;;
12474;SDS011;6302;42.624;23.334;2022-09-24T08:29:11;6.07;;;4.60;;
12474;SDS011;6302;42.624;23.334;2022-09-24T08:31:38;5.73;;;5.13;;
12474;SDS011;6302;42.624;23.334;2022-09-24T08:34:06;5.80;;;5.03;;
12474;SDS011;6302;42.624;23.334;2022-09-24T08:36:32;6.50;;;5.07;;
12474;SDS011;6302;42.624;23.334;2022-09-24T08:38:59;5.73;;;4.80;;
12474;SDS011;6302;42.624;23.334;2022-09-24T08:41:30;4.47;;;4.07;;
12474;SDS011;6302;42.624;23.334;2022-09-24T08:44:12;4.60;;;4.20;;
12474;SDS011;6302;42.624;23.334;2022-09-24T08:47:06;5.17;;;4.17;;
12474;SDS011;6302;42.624;23.334;2022-09-24T08:49:48;7.57;;;5.10;;
12474;SDS011;6302;42.624;23.334;2022-09-24T08:52:25;4.10;;;3.70;;
12474;SDS011;6302;42.624;23.334;2022-09-24T08:54:59;4.80;;;4.20;;
12474;SDS011;6302;42.624;23.334;2022-09-24T08:57:29;4.73;;;4.23;;
12474;SDS011;6302;42.624;23.334;2022-09-24T09:00:05;4.13;;;3.83;;
12474;SDS011;6302;42.624;23.334;2022-09-24T09:02:37;7.03;;;4.30;;
12474;SDS011;6302;42.624;23.334;2022-09-24T09:05:13;8.43;;;4.30;;
12474;SDS011;6302;42.624;23.334;2022-09-24T09:07:50;6.90;;;4.20;;
12474;SDS011;6302;42.624;23.334;2022-09-24T09:10:26;13.63;;;4.13;;
12474;SDS011;6302;42.624;23.334;2022-09-24T09:12:58;5.10;;;4.00;;
12474;SDS011;6302;42.624;23.334;2022-09-24T09:15:32;8.00;;;4.40;;
12474;SDS011;6302;42.624;23.334;2022-09-24T09:18:02;5.20;;;4.53;;
12474;SDS011;6302;42.624;23.334;2022-09-24T09:20:37;5.73;;;4.43;;
12474;SDS011;6302;42.624;23.334;2022-09-24T09:23:11;6.27;;;4.13;;
12474;SDS011;6302;42.624;23.334;2022-09-24T09:25:44;7.43;;;3.80;;
12474;SDS011;6302;42.624;23.334;2022-09-24T09:28:16;4.73;;;4.30;;
12474;SDS011;6302;42.624;23.334;2022-09-24T09:30:47;4.47;;;3.60;;
12474;SDS011;6302;42.624;23.334;2022-09-24T09:33:28;4.20;;;3.47;;
12474;SDS011;6302;42.624;23.334;2022-09-24T09:36:10;4.63;;;3.60;;
12474;SDS011;6302;42.624;23.334;2022-09-24T09:38:53;4.60;;;3.60;;
12474;SDS011;6302;42.624;23.334;2022-09-24T09:41:26;4.13;;;3.27;;
12474;SDS011;6302;42.624;23.334;2022-09-24T09:44:00;4.43;;;3.50;;
12474;SDS011;6302;42.624;23.334;2022-09-24T09:46:39;7.03;;;3.90;;
12474;SDS011;6302;42.624;23.334;2022-09-24T09:49:11;4.77;;;3.63;;
12474;SDS011;6302;42.624;23.334;2022-09-24T09:51:39;4.00;;;3.17;;
12474;SDS011;6302;42.624;23.334;2022-09-24T09:54:08;3.83;;;3.30;;
12474;SDS011;6302;42.624;23.334;2022-09-24T09:56:35;6.80;;;3.47;;
12474;SDS011;6302;42.624;23.334;2022-09-24T09:59:14;5.00;;;4.37;;
12474;SDS011;6302;42.624;23.334;2022-09-24T10:01:45;3.87;;;2.83;;
12474;SDS011;6302;42.624;23.334;2022-09-24T10:04:32;4.70;;;3.00;;
12474;SDS011;6302;42.624;23.334;2022-09-24T10:07:04;3.33;;;3.03;;
12474;SDS011;6302;42.624;23.334;2022-09-24T10:09:33;4.23;;;2.80;;
12474;SDS011;6302;42.624;23.334;2022-09-24T10:12:13;2.83;;;2.63;;
12474;SDS011;6302;42.624;23.334;2022-09-24T10:14:41;3.93;;;2.90;;
12474;SDS011;6302;42.624;23.334;2022-09-24T10:17:11;4.50;;;3.03;;
12474;SDS011;6302;42.624;23.334;2022-09-24T10:19:42;3.93;;;3.07;;
12474;SDS011;6302;42.624;23.334;2022-09-24T10:22:14;4.03;;;3.10;;
12474;SDS011;6302;42.624;23.334;2022-09-24T10:24:45;3.27;;;2.97;;
12474;SDS011;6302;42.624;23.334;2022-09-24T10:27:12;2.80;;;2.53;;
12474;SDS011;6302;42.624;23.334;2022-09-24T10:29:50;3.17;;;2.50;;
12474;SDS011;6302;42.624;23.334;2022-09-24T10:32:37;2.90;;;2.57;;
12474;SDS011;6302;42.624;23.334;2022-09-24T10:35:18;2.90;;;2.60;;
12474;SDS011;6302;42.624;23.334;2022-09-24T10:37:49;5.23;;;3.17;;
12474;SDS011;6302;42.624;23.334;2022-09-24T10:40:18;3.87;;;2.90;;
12474;SDS011;6302;42.624;23.334;2022-09-24T10:42:53;2.77;;;2.57;;
12474;SDS011;6302;42.624;23.334;2022-09-24T10:45:22;3.17;;;2.90;;
12474;SDS011;6302;42.624;23.334;2022-09-24T10:48:09;4.47;;;2.80;;
12474;SDS011;6302;42.624;23.334;2022-09-24T10:50:45;4.07;;;2.93;;
12474;SDS011;6302;42.624;23.334;2022-09-24T10:53:22;3.73;;;2.70;;
12474;SDS011;6302;42.624;23.334;2022-09-24T10:56:00;3.27;;;2.97;;
12474;SDS011;6302;42.624;23.334;2022-09-24T10:58:37;3.40;;;3.10;;
12474;SDS011;6302;42.624;23.334;2022-09-24T11:01:23;3.13;;;2.90;;
12474;SDS011;6302;42.624;23.334;2022-09-24T11:07:07;4.87;;;3.20;;
12474;SDS011;6302;42.624;23.334;2022-09-24T11:09:54;3.50;;;2.90;;
12474;SDS011;6302;42.624;23.334;2022-09-24T11:12:28;3.77;;;3.43;;
12474;SDS011;6302;42.624;23.334;2022-09-24T11:15:03;4.90;;;3.03;;
12474;SDS011;6302;42.624;23.334;2022-09-24T11:17:45;5.17;;;2.90;;
12474;SDS011;6302;42.624;23.334;2022-09-24T11:20:25;3.33;;;3.00;;
12474;SDS011;6302;42.624;23.334;2022-09-24T11:26:02;3.57;;;3.03;;
12474;SDS011;6302;42.624;23.334;2022-09-24T11:31:50;5.27;;;3.10;;
12474;SDS011;6302;42.624;23.334;2022-09-24T11:34:38;5.70;;;2.70;;
12474;SDS011;6302;42.624;23.334;2022-09-24T11:37:20;2.87;;;2.50;;
12474;SDS011;6302;42.624;23.334;2022-09-24T11:40:06;3.33;;;2.70;;
12474;SDS011;6302;42.624;23.334;2022-09-24T11:42:46;3.23;;;2.60;;
12474;SDS011;6302;42.624;23.334;2022-09-24T11:45:25;3.23;;;2.63;;
12474;SDS011;6302;42.624;23.334;2022-09-24T11:48:20;2.93;;;2.70;;
12474;SDS011;6302;42.624;23.334;2022-09-24T11:51:00;3.30;;;2.70;;
12474;SDS011;6302;42.624;23.334;2022-09-24T11:53:40;2.83;;;2.50;;
12474;SDS011;6302;42.624;23.334;2022-09-24T11:56:12;4.07;;;2.60;;
12474;SDS011;6302;42.624;23.334;2022-09-24T11:58:44;3.60;;;2.83;;
12474;SDS011;6302;42.624;23.334;2022-09-24T12:01:16;3.70;;;2.90;;
12474;SDS011;6302;42.624;23.334;2022-09-24T12:03:48;2.63;;;2.40;;
12474;SDS011;6302;42.624;23.334;2022-09-24T12:06:23;3.33;;;2.60;;
12474;SDS011;6302;42.624;23.334;2022-09-24T12:08:57;2.97;;;2.40;;
12474;SDS011;6302;42.624;23.334;2022-09-24T12:11:29;2.90;;;2.20;;
12474;SDS011;6302;42.624;23.334;2022-09-24T12:14:01;2.40;;;2.20;;
12474;SDS011;6302;42.624;23.334;2022-09-24T12:16:36;3.67;;;2.47;;
12474;SDS011;6302;42.624;23.334;2022-09-24T12:19:07;4.27;;;2.30;;
12474;SDS011;6302;42.624;23.334;2022-09-24T12:21:42;2.43;;;2.23;;
12474;SDS011;6302;42.624;23.334;2022-09-24T12:24:14;2.50;;;2.30;;
12474;SDS011;6302;42.624;23.334;2022-09-24T12:26:47;3.70;;;2.30;;
12474;SDS011;6302;42.624;23.334;2022-09-24T12:29:22;3.03;;;2.40;;
12474;SDS011;6302;42.624;23.334;2022-09-24T12:32:22;2.60;;;2.37;;
12474;SDS011;6302;42.624;23.334;2022-09-24T12:35:20;3.00;;;2.50;;
12474;SDS011;6302;42.624;23.334;2022-09-24T12:37:54;2.57;;;2.37;;
12474;SDS011;6302;42.624;23.334;2022-09-24T12:40:35;2.67;;;2.47;;
12474;SDS011;6302;42.624;23.334;2022-09-24T12:43:17;3.63;;;2.33;;
12474;SDS011;6302;42.624;23.334;2022-09-24T12:45:52;3.70;;;2.33;;
12474;SDS011;6302;42.624;23.334;2022-09-24T12:48:21;3.70;;;2.33;;
12474;SDS011;6302;42.624;23.334;2022-09-24T12:50:54;3.40;;;3.10;;
12474;SDS011;6302;42.624;23.334;2022-09-24T12:53:24;2.97;;;2.60;;
12474;SDS011;6302;42.624;23.334;2022-09-24T12:56:00;2.63;;;2.43;;
12474;SDS011;6302;42.624;23.334;2022-09-24T12:58:29;3.87;;;2.33;;
12474;SDS011;6302;42.624;23.334;2022-09-24T13:01:06;2.27;;;2.07;;
12474;SDS011;6302;42.624;23.334;2022-09-24T13:03:38;2.80;;;2.43;;
12474;SDS011;6302;42.624;23.334;2022-09-24T13:06:20;2.40;;;2.20;;
12474;SDS011;6302;42.624;23.334;2022-09-24T13:08:55;2.77;;;2.47;;
12474;SDS011;6302;42.624;23.334;2022-09-24T13:11:25;3.77;;;2.50;;
12474;SDS011;6302;42.624;23.334;2022-09-24T13:13:58;2.80;;;2.50;;
12474;SDS011;6302;42.624;23.334;2022-09-24T13:16:29;3.03;;;2.30;;
12474;SDS011;6302;42.624;23.334;2022-09-24T13:18:57;2.00;;;1.80;;
12474;SDS011;6302;42.624;23.334;2022-09-24T13:21:26;3.00;;;2.30;;
12474;SDS011;6302;42.624;23.334;2022-09-24T13:23:54;2.37;;;2.17;;
12474;SDS011;6302;42.624;23.334;2022-09-24T13:26:28;3.20;;;2.30;;
12474;SDS011;6302;42.624;23.334;2022-09-24T13:28:58;2.27;;;2.10;;
12474;SDS011;6302;42.624;23.334;2022-09-24T13:31:30;2.50;;;2.17;;
12474;SDS011;6302;42.624;23.334;2022-09-24T13:34:10;4.20;;;2.23;;
12474;SDS011;6302;42.624;23.334;2022-09-24T13:36:43;2.47;;;2.27;;
12474;SDS011;6302;42.624;23.334;2022-09-24T13:39:15;2.87;;;2.30;;
12474;SDS011;6302;42.624;23.334;2022-09-24T13:41:47;2.30;;;2.10;;
12474;SDS011;6302;42.624;23.334;2022-09-24T13:44:22;2.20;;;2.00;;
12474;SDS011;6302;42.624;23.334;2022-09-24T13:46:55;2.63;;;1.97;;
12474;SDS011;6302;42.624;23.334;2022-09-24T13:49:24;2.40;;;2.17;;
12474;SDS011;6302;42.624;23.334;2022-09-24T13:51:56;2.57;;;2.00;;
12474;SDS011;6302;42.624;23.334;2022-09-24T13:54:32;2.10;;;1.90;;
12474;SDS011;6302;42.624;23.334;2022-09-24T13:57:08;2.77;;;2.20;;
12474;SDS011;6302;42.624;23.334;2022-09-24T13:59:38;1.70;;;1.60;;
12474;SDS011;6302;42.624;23.334;2022-09-24T14:02:18;2.10;;;1.90;;
12474;SDS011;6302;42.624;23.334;2022-09-24T14:04:52;2.13;;;1.97;;
12474;SDS011;6302;42.624;23.334;2022-09-24T14:07:19;2.70;;;2.50;;
12474;SDS011;6302;42.624;23.334;2022-09-24T14:09:47;2.30;;;2.10;;
12474;SDS011;6302;42.624;23.334;2022-09-24T14:12:17;1.90;;;1.80;;
12474;SDS011;6302;42.624;23.334;2022-09-24T14:14:49;2.00;;;1.87;;
12474;SDS011;6302;42.624;23.334;2022-09-24T14:17:18;2.00;;;1.90;;
12474;SDS011;6302;42.624;23.334;2022-09-24T14:19:45;2.27;;;2.10;;
12474;SDS011;6302;42.624;23.334;2022-09-24T14:22:13;5.77;;;3.57;;
12474;SDS011;6302;42.624;23.334;2022-09-24T14:24:46;3.20;;;2.90;;
12474;SDS011;6302;42.624;23.334;2022-09-24T14:27:21;3.17;;;2.50;;
12474;SDS011;6302;42.624;23.334;2022-09-24T14:29:52;2.20;;;2.10;;
12474;SDS011;6302;42.624;23.334;2022-09-24T14:32:24;2.13;;;1.93;;
12474;SDS011;6302;42.624;23.334;2022-09-24T14:34:54;2.37;;;2.17;;
12474;SDS011;6302;42.624;23.334;2022-09-24T14:37:25;2.93;;;2.63;;
12474;SDS011;6302;42.624;23.334;2022-09-24T14:39:56;3.10;;;2.53;;
12474;SDS011;6302;42.624;23.334;2022-09-24T14:42:28;3.47;;;1.90;;
12474;SDS011;6302;42.624;23.334;2022-09-24T14:44:58;2.30;;;2.10;;
12474;SDS011;6302;42.624;23.334;2022-09-24T14:47:29;2.90;;;2.60;;
12474;SDS011;6302;42.624;23.334;2022-09-24T14:49:57;3.17;;;2.47;;
12474;SDS011;6302;42.624;23.334;2022-09-24T14:52:26;2.97;;;2.50;;
12474;SDS011;6302;42.624;23.334;2022-09-24T14:57:45;4.83;;;2.77;;
12474;SDS011;6302;42.624;23.334;2022-09-24T15:00:20;3.70;;;2.60;;
12474;SDS011;6302;42.624;23.334;2022-09-24T15:02:51;2.90;;;2.53;;
12474;SDS011;6302;42.624;23.334;2022-09-24T15:05:23;2.97;;;2.57;;
12474;SDS011;6302;42.624;23.334;2022-09-24T15:07:52;3.00;;;2.70;;
12474;SDS011;6302;42.624;23.334;2022-09-24T15:10:33;3.53;;;3.23;;
12474;SDS011;6302;42.624;23.334;2022-09-24T15:13:11;4.97;;;3.33;;
12474;SDS011;6302;42.624;23.334;2022-09-24T15:15:40;3.03;;;2.83;;
12474;SDS011;6302;42.624;23.334;2022-09-24T15:18:08;5.10;;;2.70;;
12474;SDS011;6302;42.624;23.334;2022-09-24T15:20:36;3.27;;;2.57;;
12474;SDS011;6302;42.624;23.334;2022-09-24T15:23:03;3.50;;;2.70;;
12474;SDS011;6302;42.624;23.334;2022-09-24T15:25:29;3.73;;;3.00;;
12474;SDS011;6302;42.624;23.334;2022-09-24T15:27:56;4.90;;;4.40;;